sensor_id;sensor_type;location;lat;lon;timestamp;temperature;humidity
68609;SHT31;55581;46.718;7.690;2022-07-30T00:02:03;17.66;87.75
68609;SHT31;55581;46.718;7.690;2022-07-30T00:04:28;17.61;87.44
68609;SHT31;55581;46.718;7.690;2022-07-30T00:06:54;17.55;87.35
68609;SHT31;55581;46.718;7.690;2022-07-30T00:09:21;17.58;86.83
68609;SHT31;55581;46.718;7.690;2022-07-30T00:11:46;17.62;86.39
68609;SHT31;55581;46.718;7.690;2022-07-30T00:14:12;17.65;86.66
68609;SHT31;55581;46.718;7.690;2022-07-30T00:16:37;17.64;86.90
68609;SHT31;55581;46.718;7.690;2022-07-30T00:19:08;17.47;88.11
68609;SHT31;55581;46.718;7.690;2022-07-30T00:21:34;17.32;89.15
68609;SHT31;55581;46.718;7.690;2022-07-30T00:24:01;17.26;88.91
68609;SHT31;55581;46.718;7.690;2022-07-30T00:26:26;17.39;87.12
68609;SHT31;55581;46.718;7.690;2022-07-30T00:28:51;17.42;87.01
68609;SHT31;55581;46.718;7.690;2022-07-30T00:31:17;17.47;87.19
68609;SHT31;55581;46.718;7.690;2022-07-30T00:33:42;17.41;87.07
68609;SHT31;55581;46.718;7.690;2022-07-30T00:36:08;17.38;87.90
68609;SHT31;55581;46.718;7.690;2022-07-30T00:38:33;17.35;87.51
68609;SHT31;55581;46.718;7.690;2022-07-30T00:40:58;17.44;86.66
68609;SHT31;55581;46.718;7.690;2022-07-30T00:43:24;17.51;86.39
68609;SHT31;55581;46.718;7.690;2022-07-30T00:45:51;17.59;86.11
68609;SHT31;55581;46.718;7.690;2022-07-30T00:48:16;17.61;86.26
68609;SHT31;55581;46.718;7.690;2022-07-30T00:50:42;17.64;86.00
68609;SHT31;55581;46.718;7.690;2022-07-30T00:53:07;17.55;86.31
68609;SHT31;55581;46.718;7.690;2022-07-30T00:55:34;17.54;86.27
68609;SHT31;55581;46.718;7.690;2022-07-30T00:58:00;17.59;86.20
68609;SHT31;55581;46.718;7.690;2022-07-30T01:00:26;17.59;86.28
68609;SHT31;55581;46.718;7.690;2022-07-30T01:02:54;17.48;86.50
68609;SHT31;55581;46.718;7.690;2022-07-30T01:05:20;17.39;87.59
68609;SHT31;55581;46.718;7.690;2022-07-30T01:07:45;17.30;88.00
68609;SHT31;55581;46.718;7.690;2022-07-30T01:10:15;17.24;88.09
68609;SHT31;55581;46.718;7.690;2022-07-30T01:12:44;17.16;88.66
68609;SHT31;55581;46.718;7.690;2022-07-30T01:15:13;17.13;88.61
68609;SHT31;55581;46.718;7.690;2022-07-30T01:17:38;17.17;88.36
68609;SHT31;55581;46.718;7.690;2022-07-30T01:20:10;17.07;88.80
68609;SHT31;55581;46.718;7.690;2022-07-30T01:22:54;17.02;88.77
68609;SHT31;55581;46.718;7.690;2022-07-30T01:27:57;16.56;90.24
68609;SHT31;55581;46.718;7.690;2022-07-30T01:30:27;16.52;90.60
68609;SHT31;55581;46.718;7.690;2022-07-30T01:32:57;16.45;90.04
68609;SHT31;55581;46.718;7.690;2022-07-30T01:35:25;16.40;90.50
68609;SHT31;55581;46.718;7.690;2022-07-30T01:37:52;16.32;90.55
68609;SHT31;55581;46.718;7.690;2022-07-30T01:40:19;16.22;90.44
68609;SHT31;55581;46.718;7.690;2022-07-30T01:42:50;16.14;90.38
68609;SHT31;55581;46.718;7.690;2022-07-30T01:45:23;15.96;90.62
68609;SHT31;55581;46.718;7.690;2022-07-30T01:47:52;15.87;90.72
68609;SHT31;55581;46.718;7.690;2022-07-30T01:50:19;15.97;90.79
68609;SHT31;55581;46.718;7.690;2022-07-30T01:52:46;16.01;90.13
68609;SHT31;55581;46.718;7.690;2022-07-30T01:55:29;16.06;89.81
68609;SHT31;55581;46.718;7.690;2022-07-30T01:57:58;15.97;89.36
68609;SHT31;55581;46.718;7.690;2022-07-30T02:00:27;15.80;90.31
68609;SHT31;55581;46.718;7.690;2022-07-30T02:02:55;15.80;90.29
68609;SHT31;55581;46.718;7.690;2022-07-30T02:05:20;15.69;90.94
68609;SHT31;55581;46.718;7.690;2022-07-30T02:07:59;15.63;91.24
68609;SHT31;55581;46.718;7.690;2022-07-30T02:11:00;15.63;91.26
68609;SHT31;55581;46.718;7.690;2022-07-30T02:13:31;15.52;91.32
68609;SHT31;55581;46.718;7.690;2022-07-30T02:16:30;15.49;91.47
68609;SHT31;55581;46.718;7.690;2022-07-30T02:19:07;15.52;91.86
68609;SHT31;55581;46.718;7.690;2022-07-30T02:21:39;15.44;91.72
68609;SHT31;55581;46.718;7.690;2022-07-30T02:24:07;15.58;91.95
68609;SHT31;55581;46.718;7.690;2022-07-30T02:26:37;15.72;91.37
68609;SHT31;55581;46.718;7.690;2022-07-30T02:29:03;15.85;90.73
68609;SHT31;55581;46.718;7.690;2022-07-30T02:31:30;15.86;89.93
68609;SHT31;55581;46.718;7.690;2022-07-30T02:34:00;15.79;90.40
68609;SHT31;55581;46.718;7.690;2022-07-30T02:36:27;15.69;90.33
68609;SHT31;55581;46.718;7.690;2022-07-30T02:38:55;15.59;90.75
68609;SHT31;55581;46.718;7.690;2022-07-30T02:41:26;15.51;90.89
68609;SHT31;55581;46.718;7.690;2022-07-30T02:43:54;15.49;91.80
68609;SHT31;55581;46.718;7.690;2022-07-30T02:46:22;15.55;92.18
68609;SHT31;55581;46.718;7.690;2022-07-30T02:48:52;15.65;91.26
68609;SHT31;55581;46.718;7.690;2022-07-30T02:51:19;15.58;90.62
68609;SHT31;55581;46.718;7.690;2022-07-30T02:53:46;15.58;90.55
68609;SHT31;55581;46.718;7.690;2022-07-30T02:56:13;15.46;91.16
68609;SHT31;55581;46.718;7.690;2022-07-30T02:58:41;15.46;92.26
68609;SHT31;55581;46.718;7.690;2022-07-30T03:01:08;15.52;91.86
68609;SHT31;55581;46.718;7.690;2022-07-30T03:03:35;15.42;92.00
68609;SHT31;55581;46.718;7.690;2022-07-30T03:06:02;15.36;91.87
68609;SHT31;55581;46.718;7.690;2022-07-30T03:08:30;15.34;92.00
68609;SHT31;55581;46.718;7.690;2022-07-30T03:10:56;15.55;92.28
68609;SHT31;55581;46.718;7.690;2022-07-30T03:13:24;15.65;91.95
68609;SHT31;55581;46.718;7.690;2022-07-30T03:15:52;15.67;92.06
68609;SHT31;55581;46.718;7.690;2022-07-30T03:18:19;15.72;91.34
68609;SHT31;55581;46.718;7.690;2022-07-30T03:20:48;15.61;91.39
68609;SHT31;55581;46.718;7.690;2022-07-30T03:23:18;15.67;92.37
68609;SHT31;55581;46.718;7.690;2022-07-30T03:25:47;15.73;91.44
68609;SHT31;55581;46.718;7.690;2022-07-30T03:28:14;15.72;91.30
68609;SHT31;55581;46.718;7.690;2022-07-30T03:30:40;15.62;91.28
68609;SHT31;55581;46.718;7.690;2022-07-30T03:33:09;15.55;91.85
68609;SHT31;55581;46.718;7.690;2022-07-30T03:35:35;15.51;91.88
68609;SHT31;55581;46.718;7.690;2022-07-30T03:38:03;15.44;92.67
68609;SHT31;55581;46.718;7.690;2022-07-30T03:40:30;15.42;92.28
68609;SHT31;55581;46.718;7.690;2022-07-30T03:42:56;15.35;91.90
68609;SHT31;55581;46.718;7.690;2022-07-30T03:45:25;15.34;92.26
68609;SHT31;55581;46.718;7.690;2022-07-30T03:47:51;15.31;91.77
68609;SHT31;55581;46.718;7.690;2022-07-30T03:50:17;15.31;91.19
68609;SHT31;55581;46.718;7.690;2022-07-30T03:52:42;15.28;91.59
68609;SHT31;55581;46.718;7.690;2022-07-30T03:55:10;15.27;91.33
68609;SHT31;55581;46.718;7.690;2022-07-30T03:57:36;15.23;91.90
68609;SHT31;55581;46.718;7.690;2022-07-30T04:00:06;15.16;91.39
68609;SHT31;55581;46.718;7.690;2022-07-30T04:02:41;15.08;92.23
68609;SHT31;55581;46.718;7.690;2022-07-30T04:05:07;15.08;92.67
68609;SHT31;55581;46.718;7.690;2022-07-30T04:07:34;15.07;92.36
68609;SHT31;55581;46.718;7.690;2022-07-30T04:10:00;15.00;92.58
68609;SHT31;55581;46.718;7.690;2022-07-30T04:12:27;15.11;92.77
68609;SHT31;55581;46.718;7.690;2022-07-30T04:14:52;15.23;91.98
68609;SHT31;55581;46.718;7.690;2022-07-30T04:17:21;15.27;92.43
68609;SHT31;55581;46.718;7.690;2022-07-30T04:19:52;15.27;92.16
68609;SHT31;55581;46.718;7.690;2022-07-30T04:22:25;15.28;91.96
68609;SHT31;55581;46.718;7.690;2022-07-30T04:24:52;15.38;91.62
68609;SHT31;55581;46.718;7.690;2022-07-30T04:27:19;15.32;91.48
68609;SHT31;55581;46.718;7.690;2022-07-30T04:29:45;15.36;91.09
68609;SHT31;55581;46.718;7.690;2022-07-30T04:32:13;15.38;91.41
68609;SHT31;55581;46.718;7.690;2022-07-30T04:34:48;15.38;91.84
68609;SHT31;55581;46.718;7.690;2022-07-30T04:37:15;15.25;91.62
68609;SHT31;55581;46.718;7.690;2022-07-30T04:39:41;15.25;92.30
68609;SHT31;55581;46.718;7.690;2022-07-30T04:42:06;15.18;92.35
68609;SHT31;55581;46.718;7.690;2022-07-30T04:44:33;15.21;92.02
68609;SHT31;55581;46.718;7.690;2022-07-30T04:46:59;15.18;92.12
68609;SHT31;55581;46.718;7.690;2022-07-30T04:49:26;15.23;91.98
68609;SHT31;55581;46.718;7.690;2022-07-30T04:51:53;15.27;91.45
68609;SHT31;55581;46.718;7.690;2022-07-30T04:54:20;15.24;91.88
68609;SHT31;55581;46.718;7.690;2022-07-30T04:56:47;15.35;91.95
68609;SHT31;55581;46.718;7.690;2022-07-30T04:59:14;15.39;91.62
68609;SHT31;55581;46.718;7.690;2022-07-30T05:01:47;15.42;91.07
68609;SHT31;55581;46.718;7.690;2022-07-30T05:04:14;15.42;91.07
68609;SHT31;55581;46.718;7.690;2022-07-30T05:06:40;15.56;91.03
68609;SHT31;55581;46.718;7.690;2022-07-30T05:09:07;15.82;89.78
68609;SHT31;55581;46.718;7.690;2022-07-30T05:11:34;15.99;88.64
68609;SHT31;55581;46.718;7.690;2022-07-30T05:13:59;16.07;88.68
68609;SHT31;55581;46.718;7.690;2022-07-30T05:16:25;16.11;88.60
68609;SHT31;55581;46.718;7.690;2022-07-30T05:18:50;16.06;88.91
68609;SHT31;55581;46.718;7.690;2022-07-30T05:21:16;16.09;88.57
68609;SHT31;55581;46.718;7.690;2022-07-30T05:23:42;15.97;88.48
68609;SHT31;55581;46.718;7.690;2022-07-30T05:26:08;15.82;89.03
68609;SHT31;55581;46.718;7.690;2022-07-30T05:28:33;15.72;89.58
68609;SHT31;55581;46.718;7.690;2022-07-30T05:30:59;15.63;89.41
68609;SHT31;55581;46.718;7.690;2022-07-30T05:33:26;15.58;89.30
68609;SHT31;55581;46.718;7.690;2022-07-30T05:35:52;15.59;89.83
68609;SHT31;55581;46.718;7.690;2022-07-30T05:38:18;15.62;90.15
68609;SHT31;55581;46.718;7.690;2022-07-30T05:40:43;15.73;89.77
68609;SHT31;55581;46.718;7.690;2022-07-30T05:43:11;15.91;89.23
68609;SHT31;55581;46.718;7.690;2022-07-30T05:45:37;16.09;88.77
68609;SHT31;55581;46.718;7.690;2022-07-30T05:48:02;16.24;88.28
68609;SHT31;55581;46.718;7.690;2022-07-30T05:50:28;16.25;88.07
68609;SHT31;55581;46.718;7.690;2022-07-30T05:52:53;16.20;88.90
68609;SHT31;55581;46.718;7.690;2022-07-30T05:55:20;16.10;89.49
68609;SHT31;55581;46.718;7.690;2022-07-30T05:57:45;16.06;89.22
68609;SHT31;55581;46.718;7.690;2022-07-30T06:00:12;15.96;89.25
68609;SHT31;55581;46.718;7.690;2022-07-30T06:02:38;15.89;89.41
68609;SHT31;55581;46.718;7.690;2022-07-30T06:05:05;15.87;89.61
68609;SHT31;55581;46.718;7.690;2022-07-30T06:07:32;15.83;89.97
68609;SHT31;55581;46.718;7.690;2022-07-30T06:09:58;15.85;89.96
68609;SHT31;55581;46.718;7.690;2022-07-30T06:12:28;15.86;90.11
68609;SHT31;55581;46.718;7.690;2022-07-30T06:14:55;15.86;90.49
68609;SHT31;55581;46.718;7.690;2022-07-30T06:17:22;15.85;90.09
68609;SHT31;55581;46.718;7.690;2022-07-30T06:19:52;15.93;90.23
68609;SHT31;55581;46.718;7.690;2022-07-30T06:22:18;16.04;89.46
68609;SHT31;55581;46.718;7.690;2022-07-30T06:24:44;16.14;89.20
68609;SHT31;55581;46.718;7.690;2022-07-30T06:27:09;16.21;89.43
68609;SHT31;55581;46.718;7.690;2022-07-30T06:29:35;16.24;89.12
68609;SHT31;55581;46.718;7.690;2022-07-30T06:32:02;16.32;89.13
68609;SHT31;55581;46.718;7.690;2022-07-30T06:34:27;16.32;88.79
68609;SHT31;55581;46.718;7.690;2022-07-30T06:36:53;16.42;88.80
68609;SHT31;55581;46.718;7.690;2022-07-30T06:39:18;16.62;88.22
68609;SHT31;55581;46.718;7.690;2022-07-30T06:41:44;16.87;87.68
68609;SHT31;55581;46.718;7.690;2022-07-30T06:44:09;17.10;87.03
68609;SHT31;55581;46.718;7.690;2022-07-30T06:46:35;17.34;85.75
68609;SHT31;55581;46.718;7.690;2022-07-30T06:49:03;17.48;84.95
68609;SHT31;55581;46.718;7.690;2022-07-30T06:51:31;17.54;84.71
68609;SHT31;55581;46.718;7.690;2022-07-30T06:53:58;17.48;85.28
68609;SHT31;55581;46.718;7.690;2022-07-30T06:56:24;17.48;85.07
68609;SHT31;55581;46.718;7.690;2022-07-30T06:58:49;17.37;85.98
68609;SHT31;55581;46.718;7.690;2022-07-30T07:01:15;17.28;86.12
68609;SHT31;55581;46.718;7.690;2022-07-30T07:03:42;17.26;86.96
68609;SHT31;55581;46.718;7.690;2022-07-30T07:06:08;17.21;86.58
68609;SHT31;55581;46.718;7.690;2022-07-30T07:08:37;17.27;86.42
68609;SHT31;55581;46.718;7.690;2022-07-30T07:11:03;17.42;85.99
68609;SHT31;55581;46.718;7.690;2022-07-30T07:13:28;17.81;85.60
68609;SHT31;55581;46.718;7.690;2022-07-30T07:15:55;18.16;83.84
68609;SHT31;55581;46.718;7.690;2022-07-30T07:18:23;18.65;81.00
68609;SHT31;55581;46.718;7.690;2022-07-30T07:20:49;18.93;78.88
68609;SHT31;55581;46.718;7.690;2022-07-30T07:23:16;19.17;76.18
68609;SHT31;55581;46.718;7.690;2022-07-30T07:25:42;19.24;74.49
68609;SHT31;55581;46.718;7.690;2022-07-30T07:28:10;19.31;77.66
68609;SHT31;55581;46.718;7.690;2022-07-30T07:30:35;19.57;74.46
68609;SHT31;55581;46.718;7.690;2022-07-30T07:33:01;19.65;75.99
68609;SHT31;55581;46.718;7.690;2022-07-30T07:35:26;19.89;75.55
68609;SHT31;55581;46.718;7.690;2022-07-30T07:37:52;19.88;73.85
68609;SHT31;55581;46.718;7.690;2022-07-30T07:40:18;19.96;73.10
68609;SHT31;55581;46.718;7.690;2022-07-30T07:42:43;20.10;72.25
68609;SHT31;55581;46.718;7.690;2022-07-30T07:45:10;20.22;72.45
68609;SHT31;55581;46.718;7.690;2022-07-30T07:47:46;20.36;71.37
68609;SHT31;55581;46.718;7.690;2022-07-30T07:50:14;20.36;71.43
68609;SHT31;55581;46.718;7.690;2022-07-30T07:52:43;20.36;72.13
68609;SHT31;55581;46.718;7.690;2022-07-30T07:55:08;20.51;71.68
68609;SHT31;55581;46.718;7.690;2022-07-30T07:57:41;20.50;71.75
68609;SHT31;55581;46.718;7.690;2022-07-30T08:00:08;20.70;70.97
68609;SHT31;55581;46.718;7.690;2022-07-30T08:02:36;20.58;72.15
68609;SHT31;55581;46.718;7.690;2022-07-30T08:05:04;20.78;71.80
68609;SHT31;55581;46.718;7.690;2022-07-30T08:07:30;20.72;71.46
68609;SHT31;55581;46.718;7.690;2022-07-30T08:09:55;20.82;70.32
68609;SHT31;55581;46.718;7.690;2022-07-30T08:12:21;20.79;70.66
68609;SHT31;55581;46.718;7.690;2022-07-30T08:14:47;21.02;69.23
68609;SHT31;55581;46.718;7.690;2022-07-30T08:17:12;21.00;68.77
68609;SHT31;55581;46.718;7.690;2022-07-30T08:19:38;21.26;66.77
68609;SHT31;55581;46.718;7.690;2022-07-30T08:22:04;21.40;65.95
68609;SHT31;55581;46.718;7.690;2022-07-30T08:24:29;21.33;64.28
68609;SHT31;55581;46.718;7.690;2022-07-30T08:26:55;21.27;66.43
68609;SHT31;55581;46.718;7.690;2022-07-30T08:29:20;21.47;66.24
68609;SHT31;55581;46.718;7.690;2022-07-30T08:31:45;21.49;65.60
68609;SHT31;55581;46.718;7.690;2022-07-30T08:34:11;21.65;64.35
68609;SHT31;55581;46.718;7.690;2022-07-30T08:36:37;21.70;64.70
68609;SHT31;55581;46.718;7.690;2022-07-30T08:39:03;21.70;63.95
68609;SHT31;55581;46.718;7.690;2022-07-30T08:41:29;21.77;63.52
68609;SHT31;55581;46.718;7.690;2022-07-30T08:43:59;21.87;64.93
68609;SHT31;55581;46.718;7.690;2022-07-30T08:46:30;21.84;64.51
68609;SHT31;55581;46.718;7.690;2022-07-30T08:48:56;21.89;63.47
68609;SHT31;55581;46.718;7.690;2022-07-30T08:51:23;21.82;63.81
68609;SHT31;55581;46.718;7.690;2022-07-30T08:53:50;21.92;63.37
68609;SHT31;55581;46.718;7.690;2022-07-30T08:56:16;21.98;64.43
68609;SHT31;55581;46.718;7.690;2022-07-30T08:58:41;22.19;62.96
68609;SHT31;55581;46.718;7.690;2022-07-30T09:01:08;22.30;63.08
68609;SHT31;55581;46.718;7.690;2022-07-30T09:03:34;22.23;64.43
68609;SHT31;55581;46.718;7.690;2022-07-30T09:06:02;22.29;62.65
68609;SHT31;55581;46.718;7.690;2022-07-30T09:08:28;22.39;62.01
68609;SHT31;55581;46.718;7.690;2022-07-30T09:10:56;22.46;61.79
68609;SHT31;55581;46.718;7.690;2022-07-30T09:13:28;22.43;63.02
68609;SHT31;55581;46.718;7.690;2022-07-30T09:15:55;22.37;64.60
68609;SHT31;55581;46.718;7.690;2022-07-30T09:20:54;22.80;61.17
68609;SHT31;55581;46.718;7.690;2022-07-30T09:23:20;22.88;63.03
68609;SHT31;55581;46.718;7.690;2022-07-30T09:25:47;22.57;65.89
68609;SHT31;55581;46.718;7.690;2022-07-30T09:28:16;22.75;64.33
68609;SHT31;55581;46.718;7.690;2022-07-30T09:30:54;22.68;64.57
68609;SHT31;55581;46.718;7.690;2022-07-30T09:33:36;22.73;63.14
68609;SHT31;55581;46.718;7.690;2022-07-30T09:36:03;23.26;62.15
68609;SHT31;55581;46.718;7.690;2022-07-30T09:38:50;23.33;60.03
68609;SHT31;55581;46.718;7.690;2022-07-30T09:41:31;23.28;61.64
68609;SHT31;55581;46.718;7.690;2022-07-30T09:44:02;23.38;61.85
68609;SHT31;55581;46.718;7.690;2022-07-30T09:46:47;23.55;58.95
68609;SHT31;55581;46.718;7.690;2022-07-30T09:49:18;23.56;60.19
68609;SHT31;55581;46.718;7.690;2022-07-30T09:51:44;23.59;59.14
68609;SHT31;55581;46.718;7.690;2022-07-30T09:54:12;23.94;57.19
68609;SHT31;55581;46.718;7.690;2022-07-30T09:56:38;24.05;55.91
68609;SHT31;55581;46.718;7.690;2022-07-30T09:59:04;24.14;58.14
68609;SHT31;55581;46.718;7.690;2022-07-30T10:01:53;24.28;55.35
68609;SHT31;55581;46.718;7.690;2022-07-30T10:04:27;24.00;55.29
68609;SHT31;55581;46.718;7.690;2022-07-30T10:06:53;24.21;54.12
68609;SHT31;55581;46.718;7.690;2022-07-30T10:09:31;24.62;53.41
68609;SHT31;55581;46.718;7.690;2022-07-30T10:12:00;24.93;51.03
68609;SHT31;55581;46.718;7.690;2022-07-30T10:14:32;25.06;54.63
68609;SHT31;55581;46.718;7.690;2022-07-30T10:16:58;25.28;53.09
68609;SHT31;55581;46.718;7.690;2022-07-30T10:19:25;25.62;52.96
68609;SHT31;55581;46.718;7.690;2022-07-30T10:21:54;25.73;51.21
68609;SHT31;55581;46.718;7.690;2022-07-30T10:24:23;25.72;52.10
68609;SHT31;55581;46.718;7.690;2022-07-30T10:26:49;25.82;50.41
68609;SHT31;55581;46.718;7.690;2022-07-30T10:29:17;25.70;49.60
68609;SHT31;55581;46.718;7.690;2022-07-30T10:31:44;25.77;50.13
68609;SHT31;55581;46.718;7.690;2022-07-30T10:34:12;26.01;49.82
68609;SHT31;55581;46.718;7.690;2022-07-30T10:36:43;25.82;49.70
68609;SHT31;55581;46.718;7.690;2022-07-30T10:39:15;25.86;50.49
68609;SHT31;55581;46.718;7.690;2022-07-30T10:41:46;25.84;48.39
68609;SHT31;55581;46.718;7.690;2022-07-30T10:47:04;26.04;49.37
68609;SHT31;55581;46.718;7.690;2022-07-30T10:49:31;26.24;48.91
68609;SHT31;55581;46.718;7.690;2022-07-30T10:51:57;26.08;49.47
68609;SHT31;55581;46.718;7.690;2022-07-30T11:02:38;26.47;49.70
68609;SHT31;55581;46.718;7.690;2022-07-30T11:07:43;26.60;50.18
68609;SHT31;55581;46.718;7.690;2022-07-30T11:10:39;26.79;51.02
68609;SHT31;55581;46.718;7.690;2022-07-30T11:13:08;26.76;49.48
68609;SHT31;55581;46.718;7.690;2022-07-30T11:18:18;27.03;49.84
68609;SHT31;55581;46.718;7.690;2022-07-30T11:21:14;27.02;50.04
68609;SHT31;55581;46.718;7.690;2022-07-30T11:23:40;26.96;48.53
68609;SHT31;55581;46.718;7.690;2022-07-30T11:26:07;27.18;47.87
68609;SHT31;55581;46.718;7.690;2022-07-30T11:28:37;27.33;48.24
68609;SHT31;55581;46.718;7.690;2022-07-30T11:31:23;27.68;48.73
68609;SHT31;55581;46.718;7.690;2022-07-30T11:33:49;27.47;45.67
68609;SHT31;55581;46.718;7.690;2022-07-30T11:36:14;27.49;42.79
68609;SHT31;55581;46.718;7.690;2022-07-30T11:38:58;27.41;42.97
68609;SHT31;55581;46.718;7.690;2022-07-30T11:41:24;27.58;43.11
68609;SHT31;55581;46.718;7.690;2022-07-30T11:44:26;27.82;45.39
68609;SHT31;55581;46.718;7.690;2022-07-30T11:46:52;28.00;42.42
68609;SHT31;55581;46.718;7.690;2022-07-30T11:49:18;28.17;40.29
68609;SHT31;55581;46.718;7.690;2022-07-30T11:51:45;28.24;37.73
68609;SHT31;55581;46.718;7.690;2022-07-30T11:54:11;28.36;37.79
68609;SHT31;55581;46.718;7.690;2022-07-30T11:56:48;28.48;38.90
68609;SHT31;55581;46.718;7.690;2022-07-30T11:59:13;28.12;38.76
68609;SHT31;55581;46.718;7.690;2022-07-30T12:01:38;27.65;35.53
68609;SHT31;55581;46.718;7.690;2022-07-30T12:04:06;27.73;38.12
68609;SHT31;55581;46.718;7.690;2022-07-30T12:06:42;27.84;37.62
68609;SHT31;55581;46.718;7.690;2022-07-30T12:09:08;27.82;38.36
68609;SHT31;55581;46.718;7.690;2022-07-30T12:11:34;27.81;35.38
68609;SHT31;55581;46.718;7.690;2022-07-30T12:14:01;28.16;37.00
68609;SHT31;55581;46.718;7.690;2022-07-30T12:16:30;28.10;35.64
68609;SHT31;55581;46.718;7.690;2022-07-30T12:19:01;28.13;36.30
68609;SHT31;55581;46.718;7.690;2022-07-30T12:21:26;28.72;37.79
68609;SHT31;55581;46.718;7.690;2022-07-30T12:24:03;29.19;37.72
68609;SHT31;55581;46.718;7.690;2022-07-30T12:26:32;29.55;38.46
68609;SHT31;55581;46.718;7.690;2022-07-30T12:29:00;29.38;33.95
68609;SHT31;55581;46.718;7.690;2022-07-30T12:31:26;28.98;32.73
68609;SHT31;55581;46.718;7.690;2022-07-30T12:33:52;28.72;33.62
68609;SHT31;55581;46.718;7.690;2022-07-30T12:38:53;28.83;30.40
68609;SHT31;55581;46.718;7.690;2022-07-30T12:41:21;28.80;32.15
68609;SHT31;55581;46.718;7.690;2022-07-30T12:46:18;29.05;33.38
68609;SHT31;55581;46.718;7.690;2022-07-30T12:49:01;29.15;30.32
68609;SHT31;55581;46.718;7.690;2022-07-30T12:51:36;29.41;30.70
68609;SHT31;55581;46.718;7.690;2022-07-30T12:54:16;29.71;31.74
68609;SHT31;55581;46.718;7.690;2022-07-30T12:56:58;30.12;33.15
68609;SHT31;55581;46.718;7.690;2022-07-30T12:59:29;30.29;31.71
68609;SHT31;55581;46.718;7.690;2022-07-30T13:01:54;30.60;30.38
68609;SHT31;55581;46.718;7.690;2022-07-30T13:04:24;29.75;29.69
68609;SHT31;55581;46.718;7.690;2022-07-30T13:07:10;29.75;31.50
68609;SHT31;55581;46.718;7.690;2022-07-30T13:09:36;30.10;30.46
68609;SHT31;55581;46.718;7.690;2022-07-30T13:12:03;29.90;32.26
68609;SHT31;55581;46.718;7.690;2022-07-30T13:14:28;30.01;30.06
68609;SHT31;55581;46.718;7.690;2022-07-30T13:16:54;30.10;31.43
68609;SHT31;55581;46.718;7.690;2022-07-30T13:19:21;30.13;31.79
68609;SHT31;55581;46.718;7.690;2022-07-30T13:21:49;30.48;29.87
68609;SHT31;55581;46.718;7.690;2022-07-30T13:24:15;30.22;31.24
68609;SHT31;55581;46.718;7.690;2022-07-30T13:26:41;30.60;31.86
68609;SHT31;55581;46.718;7.690;2022-07-30T13:29:06;30.13;32.13
68609;SHT31;55581;46.718;7.690;2022-07-30T13:31:32;30.54;31.94
68609;SHT31;55581;46.718;7.690;2022-07-30T13:33:57;30.82;33.31
68609;SHT31;55581;46.718;7.690;2022-07-30T13:36:23;31.02;31.45
68609;SHT31;55581;46.718;7.690;2022-07-30T13:38:48;30.77;30.82
68609;SHT31;55581;46.718;7.690;2022-07-30T13:41:14;31.09;31.67
68609;SHT31;55581;46.718;7.690;2022-07-30T13:43:41;31.39;31.51
68609;SHT31;55581;46.718;7.690;2022-07-30T13:46:09;31.64;31.59
68609;SHT31;55581;46.718;7.690;2022-07-30T13:48:34;31.54;32.45
68609;SHT31;55581;46.718;7.690;2022-07-30T13:51:01;30.89;33.50
68609;SHT31;55581;46.718;7.690;2022-07-30T13:53:27;30.47;33.72
68609;SHT31;55581;46.718;7.690;2022-07-30T13:55:53;30.63;33.97
68609;SHT31;55581;46.718;7.690;2022-07-30T13:58:21;30.84;33.89
68609;SHT31;55581;46.718;7.690;2022-07-30T14:00:47;31.18;31.09
68609;SHT31;55581;46.718;7.690;2022-07-30T14:03:13;30.37;31.86
68609;SHT31;55581;46.718;7.690;2022-07-30T14:05:39;30.20;31.83
68609;SHT31;55581;46.718;7.690;2022-07-30T14:08:05;29.89;31.83
68609;SHT31;55581;46.718;7.690;2022-07-30T14:10:35;29.77;32.37
68609;SHT31;55581;46.718;7.690;2022-07-30T14:13:01;30.06;34.31
68609;SHT31;55581;46.718;7.690;2022-07-30T14:15:28;29.95;32.28
68609;SHT31;55581;46.718;7.690;2022-07-30T14:17:55;30.43;31.21
68609;SHT31;55581;46.718;7.690;2022-07-30T14:20:21;30.17;32.73
68609;SHT31;55581;46.718;7.690;2022-07-30T14:22:47;29.95;32.99
68609;SHT31;55581;46.718;7.690;2022-07-30T14:25:12;29.77;31.68
68609;SHT31;55581;46.718;7.690;2022-07-30T14:27:38;29.40;33.18
68609;SHT31;55581;46.718;7.690;2022-07-30T14:30:05;29.62;33.52
68609;SHT31;55581;46.718;7.690;2022-07-30T14:32:31;30.16;32.58
68609;SHT31;55581;46.718;7.690;2022-07-30T14:34:56;30.34;33.34
68609;SHT31;55581;46.718;7.690;2022-07-30T14:37:24;30.57;31.82
68609;SHT31;55581;46.718;7.690;2022-07-30T14:39:52;30.45;34.90
68609;SHT31;55581;46.718;7.690;2022-07-30T14:42:18;30.41;34.26
68609;SHT31;55581;46.718;7.690;2022-07-30T14:44:45;30.65;33.83
68609;SHT31;55581;46.718;7.690;2022-07-30T14:47:11;30.82;30.96
68609;SHT31;55581;46.718;7.690;2022-07-30T14:49:38;30.48;31.48
68609;SHT31;55581;46.718;7.690;2022-07-30T14:52:03;29.89;31.43
68609;SHT31;55581;46.718;7.690;2022-07-30T14:54:29;29.79;32.89
68609;SHT31;55581;46.718;7.690;2022-07-30T14:56:55;29.99;32.62
68609;SHT31;55581;46.718;7.690;2022-07-30T14:59:21;30.25;32.41
68609;SHT31;55581;46.718;7.690;2022-07-30T15:01:46;30.44;34.98
68609;SHT31;55581;46.718;7.690;2022-07-30T15:04:12;30.39;36.36
68609;SHT31;55581;46.718;7.690;2022-07-30T15:06:38;29.79;32.37
68609;SHT31;55581;46.718;7.690;2022-07-30T15:09:07;30.25;30.85
68609;SHT31;55581;46.718;7.690;2022-07-30T15:11:33;30.33;32.25
68609;SHT31;55581;46.718;7.690;2022-07-30T15:13:58;30.39;34.67
68609;SHT31;55581;46.718;7.690;2022-07-30T15:16:26;30.20;35.35
68609;SHT31;55581;46.718;7.690;2022-07-30T15:18:52;30.12;35.01
68609;SHT31;55581;46.718;7.690;2022-07-30T15:21:19;29.98;35.23
68609;SHT31;55581;46.718;7.690;2022-07-30T15:23:47;29.67;37.34
68609;SHT31;55581;46.718;7.690;2022-07-30T15:26:15;29.55;36.25
68609;SHT31;55581;46.718;7.690;2022-07-30T15:28:41;29.46;34.05
68609;SHT31;55581;46.718;7.690;2022-07-30T15:31:06;29.95;33.66
68609;SHT31;55581;46.718;7.690;2022-07-30T15:33:32;29.85;35.04
68609;SHT31;55581;46.718;7.690;2022-07-30T15:35:58;29.51;35.02
68609;SHT31;55581;46.718;7.690;2022-07-30T15:38:23;29.71;36.30
68609;SHT31;55581;46.718;7.690;2022-07-30T15:40:49;29.84;37.16
68609;SHT31;55581;46.718;7.690;2022-07-30T15:43:14;29.64;38.88
68609;SHT31;55581;46.718;7.690;2022-07-30T15:45:40;29.49;37.26
68609;SHT31;55581;46.718;7.690;2022-07-30T15:48:05;29.10;37.49
68609;SHT31;55581;46.718;7.690;2022-07-30T15:50:36;28.71;35.20
68609;SHT31;55581;46.718;7.690;2022-07-30T15:53:04;28.33;35.04
68609;SHT31;55581;46.718;7.690;2022-07-30T15:55:33;28.36;37.98
68609;SHT31;55581;46.718;7.690;2022-07-30T15:57:58;28.43;35.68
68609;SHT31;55581;46.718;7.690;2022-07-30T16:00:24;28.82;35.41
68609;SHT31;55581;46.718;7.690;2022-07-30T16:02:50;29.02;33.99